Lutcher, Louisiana
Current Conditions -  °F | °C
As of 2:35 AM on Friday 19 Dec 2014 (Local Time) from K1L0 Reporting Station
Overcast Overcast  
Wind Chill: 58°   Ceiling: 2400
Heat Index: 58°   Visibility: 10mi
Dew Point: 54°   Wind: 7mph
Humidity: 85%   Direction: 70°ENE
Pressure: 30.07"   Gusts: NA
Location:  30.04°N, 90.7°W
Report Text: K1L0 190835Z AUTO 07006KT 10SM BKN024 OVC029 15/12 A3007 RMK AO2 T01460121
Loading
Personal Weather Stations






























Interactive Weather Map New forecast layout! Learn more

10-Day Weather Forecast

Advertisements
Track Severe Weather on mobile